sensor_id;sensor_type;location;lat;lon;timestamp;pressure;altitude;pressure_sealevel;temperature;humidity
29879;BME280;16752;53.364;-1.488;2024-03-02T00:01:26;97950.31;;;12.90;42.14
29879;BME280;16752;53.364;-1.488;2024-03-02T00:04:10;97948.41;;;13.06;41.63
29879;BME280;16752;53.364;-1.488;2024-03-02T00:06:54;97945.78;;;13.06;41.64
29879;BME280;16752;53.364;-1.488;2024-03-02T00:09:39;97950.88;;;13.08;42.03
29879;BME280;16752;53.364;-1.488;2024-03-02T00:12:23;97941.28;;;13.15;41.93
29879;BME280;16752;53.364;-1.488;2024-03-02T00:15:33;97940.59;;;13.21;41.81
29879;BME280;16752;53.364;-1.488;2024-03-02T00:18:12;97948.16;;;12.93;42.08
29879;BME280;16752;53.364;-1.488;2024-03-02T00:20:57;97951.97;;;12.91;42.26
29879;BME280;16752;53.364;-1.488;2024-03-02T00:23:41;97944.44;;;13.10;41.89
29879;BME280;16752;53.364;-1.488;2024-03-02T00:26:25;97953.19;;;12.80;42.70
29879;BME280;16752;53.364;-1.488;2024-03-02T00:29:09;97941.97;;;13.09;42.14
29879;BME280;16752;53.364;-1.488;2024-03-02T00:31:57;97942.44;;;13.12;42.45
29879;BME280;16752;53.364;-1.488;2024-03-02T00:34:41;97954.31;;;12.85;42.74
29879;BME280;16752;53.364;-1.488;2024-03-02T00:37:25;97940.81;;;12.89;42.41
29879;BME280;16752;53.364;-1.488;2024-03-02T00:40:09;97941.91;;;13.25;42.00
29879;BME280;16752;53.364;-1.488;2024-03-02T00:42:54;97946.06;;;13.34;42.27
29879;BME280;16752;53.364;-1.488;2024-03-02T00:45:39;97954.53;;;13.44;41.96
29879;BME280;16752;53.364;-1.488;2024-03-02T00:48:23;97952.88;;;13.29;42.04
29879;BME280;16752;53.364;-1.488;2024-03-02T00:51:07;97947.00;;;13.41;41.89
29879;BME280;16752;53.364;-1.488;2024-03-02T00:53:52;97951.97;;;13.36;42.08
29879;BME280;16752;53.364;-1.488;2024-03-02T00:56:39;97951.63;;;13.39;42.09
29879;BME280;16752;53.364;-1.488;2024-03-02T00:59:24;97946.53;;;13.38;42.04
29879;BME280;16752;53.364;-1.488;2024-03-02T01:02:08;97942.59;;;13.57;41.87
29879;BME280;16752;53.364;-1.488;2024-03-02T01:04:52;97944.69;;;13.61;42.18
29879;BME280;16752;53.364;-1.488;2024-03-02T01:07:37;97942.81;;;13.70;41.70
29879;BME280;16752;53.364;-1.488;2024-03-02T01:10:21;97944.50;;;13.63;42.08
29879;BME280;16752;53.364;-1.488;2024-03-02T01:13:05;97940.22;;;13.47;42.38
29879;BME280;16752;53.364;-1.488;2024-03-02T01:15:50;97947.34;;;13.38;42.37
29879;BME280;16752;53.364;-1.488;2024-03-02T01:18:34;97939.97;;;13.57;41.80
29879;BME280;16752;53.364;-1.488;2024-03-02T01:21:18;97938.41;;;13.48;42.23
29879;BME280;16752;53.364;-1.488;2024-03-02T01:24:02;97937.91;;;13.29;42.21
29879;BME280;16752;53.364;-1.488;2024-03-02T01:26:46;97930.63;;;13.54;42.10
29879;BME280;16752;53.364;-1.488;2024-03-02T01:29:30;97934.69;;;13.57;42.24
29879;BME280;16752;53.364;-1.488;2024-03-02T01:32:14;97943.50;;;13.49;42.40
29879;BME280;16752;53.364;-1.488;2024-03-02T01:34:59;97931.66;;;13.68;42.12
29879;BME280;16752;53.364;-1.488;2024-03-02T01:37:43;97941.72;;;13.41;42.80
29879;BME280;16752;53.364;-1.488;2024-03-02T01:40:27;97942.50;;;13.65;42.24
29879;BME280;16752;53.364;-1.488;2024-03-02T01:43:11;97945.84;;;13.59;42.41
29879;BME280;16752;53.364;-1.488;2024-03-02T01:45:55;97930.91;;;13.74;42.08
29879;BME280;16752;53.364;-1.488;2024-03-02T01:48:40;97922.03;;;13.75;42.18
29879;BME280;16752;53.364;-1.488;2024-03-02T01:51:24;97919.66;;;13.80;42.04
29879;BME280;16752;53.364;-1.488;2024-03-02T01:54:08;97916.75;;;13.75;41.98
29879;BME280;16752;53.364;-1.488;2024-03-02T01:56:52;97913.56;;;13.65;41.92
29879;BME280;16752;53.364;-1.488;2024-03-02T01:59:36;97916.44;;;13.40;42.63
29879;BME280;16752;53.364;-1.488;2024-03-02T02:02:20;97893.69;;;13.48;42.11
29879;BME280;16752;53.364;-1.488;2024-03-02T02:05:05;97925.19;;;13.56;42.42
29879;BME280;16752;53.364;-1.488;2024-03-02T02:07:49;97917.75;;;13.74;41.96
29879;BME280;16752;53.364;-1.488;2024-03-02T02:10:33;97920.38;;;13.74;42.25
29879;BME280;16752;53.364;-1.488;2024-03-02T02:13:17;97916.22;;;13.80;42.20
29879;BME280;16752;53.364;-1.488;2024-03-02T02:16:07;97919.56;;;13.73;42.17
29879;BME280;16752;53.364;-1.488;2024-03-02T02:18:51;97916.41;;;13.78;42.21
29879;BME280;16752;53.364;-1.488;2024-03-02T02:21:35;97915.66;;;13.84;42.04
29879;BME280;16752;53.364;-1.488;2024-03-02T02:24:19;97920.47;;;13.81;42.49
29879;BME280;16752;53.364;-1.488;2024-03-02T02:27:03;97915.59;;;13.92;42.06
29879;BME280;16752;53.364;-1.488;2024-03-02T02:29:47;97911.59;;;13.96;42.05
29879;BME280;16752;53.364;-1.488;2024-03-02T02:32:31;97909.06;;;13.88;42.16
29879;BME280;16752;53.364;-1.488;2024-03-02T02:35:15;97909.88;;;13.74;42.71
29879;BME280;16752;53.364;-1.488;2024-03-02T02:37:59;97913.59;;;13.94;42.10
29879;BME280;16752;53.364;-1.488;2024-03-02T02:40:43;97909.06;;;13.88;42.17
29879;BME280;16752;53.364;-1.488;2024-03-02T02:43:27;97901.25;;;13.95;42.22
29879;BME280;16752;53.364;-1.488;2024-03-02T02:46:11;97899.44;;;13.95;42.09
29879;BME280;16752;53.364;-1.488;2024-03-02T02:48:55;97901.63;;;13.92;42.20
29879;BME280;16752;53.364;-1.488;2024-03-02T02:51:38;97893.91;;;13.90;42.05
29879;BME280;16752;53.364;-1.488;2024-03-02T02:54:22;97897.00;;;13.94;42.17
29879;BME280;16752;53.364;-1.488;2024-03-02T02:57:06;97885.47;;;13.95;42.06
29879;BME280;16752;53.364;-1.488;2024-03-02T02:59:50;97886.19;;;13.89;42.38
29879;BME280;16752;53.364;-1.488;2024-03-02T03:02:34;97886.47;;;13.94;42.32
29879;BME280;16752;53.364;-1.488;2024-03-02T03:05:18;97880.13;;;13.88;42.31
29879;BME280;16752;53.364;-1.488;2024-03-02T03:08:02;97886.19;;;13.89;42.49
29879;BME280;16752;53.364;-1.488;2024-03-02T03:10:47;97880.44;;;14.00;42.50
29879;BME280;16752;53.364;-1.488;2024-03-02T03:13:31;97882.09;;;13.86;42.85
29879;BME280;16752;53.364;-1.488;2024-03-02T03:16:15;97883.91;;;14.00;42.43
29879;BME280;16752;53.364;-1.488;2024-03-02T03:18:59;97877.63;;;14.01;42.45
29879;BME280;16752;53.364;-1.488;2024-03-02T03:21:43;97878.56;;;13.94;42.80
29879;BME280;16752;53.364;-1.488;2024-03-02T03:24:27;97879.44;;;14.01;42.92
29879;BME280;16752;53.364;-1.488;2024-03-02T03:27:12;97878.81;;;13.99;42.75
29879;BME280;16752;53.364;-1.488;2024-03-02T03:29:56;97871.19;;;14.04;42.49
29879;BME280;16752;53.364;-1.488;2024-03-02T03:32:40;97869.84;;;13.79;43.25
29879;BME280;16752;53.364;-1.488;2024-03-02T03:35:24;97871.47;;;13.94;42.77
29879;BME280;16752;53.364;-1.488;2024-03-02T03:38:08;97867.94;;;13.72;43.11
29879;BME280;16752;53.364;-1.488;2024-03-02T03:40:52;97870.03;;;13.92;42.86
29879;BME280;16752;53.364;-1.488;2024-03-02T03:43:36;97867.66;;;13.97;42.82
29879;BME280;16752;53.364;-1.488;2024-03-02T03:46:21;97872.47;;;13.93;42.69
29879;BME280;16752;53.364;-1.488;2024-03-02T03:49:05;97873.28;;;13.94;42.97
29879;BME280;16752;53.364;-1.488;2024-03-02T03:51:48;97871.28;;;13.81;43.21
29879;BME280;16752;53.364;-1.488;2024-03-02T03:54:33;97874.13;;;13.94;42.92
29879;BME280;16752;53.364;-1.488;2024-03-02T03:57:17;97873.03;;;13.89;43.33
29879;BME280;16752;53.364;-1.488;2024-03-02T04:00:01;97881.00;;;13.95;42.92
29879;BME280;16752;53.364;-1.488;2024-03-02T04:02:45;97877.56;;;13.80;43.26
29879;BME280;16752;53.364;-1.488;2024-03-02T04:05:29;97881.91;;;13.88;43.16
29879;BME280;16752;53.364;-1.488;2024-03-02T04:08:13;97882.63;;;13.82;43.17
29879;BME280;16752;53.364;-1.488;2024-03-02T04:10:57;97877.00;;;13.99;42.79
29879;BME280;16752;53.364;-1.488;2024-03-02T04:13:41;97878.00;;;13.98;43.05
29879;BME280;16752;53.364;-1.488;2024-03-02T04:16:25;97879.53;;;14.07;42.74
29879;BME280;16752;53.364;-1.488;2024-03-02T04:19:08;97876.25;;;14.05;42.45
29879;BME280;16752;53.364;-1.488;2024-03-02T04:21:52;97883.97;;;14.07;42.70
29879;BME280;16752;53.364;-1.488;2024-03-02T04:24:36;97881.25;;;14.15;42.56
29879;BME280;16752;53.364;-1.488;2024-03-02T04:27:20;97880.44;;;14.15;42.47
29879;BME280;16752;53.364;-1.488;2024-03-02T04:30:04;97876.81;;;14.16;42.57
29879;BME280;16752;53.364;-1.488;2024-03-02T04:32:49;97878.06;;;14.20;42.64
29879;BME280;16752;53.364;-1.488;2024-03-02T04:35:33;97875.44;;;14.05;42.77
29879;BME280;16752;53.364;-1.488;2024-03-02T04:38:16;97883.53;;;14.03;43.04
29879;BME280;16752;53.364;-1.488;2024-03-02T04:41:00;97878.44;;;14.17;42.59
29879;BME280;16752;53.364;-1.488;2024-03-02T04:43:44;97877.19;;;14.13;42.89
29879;BME280;16752;53.364;-1.488;2024-03-02T04:46:28;97871.38;;;14.02;43.01
29879;BME280;16752;53.364;-1.488;2024-03-02T04:49:12;97882.91;;;14.01;43.08
29879;BME280;16752;53.364;-1.488;2024-03-02T04:51:56;97881.34;;;13.63;43.71
29879;BME280;16752;53.364;-1.488;2024-03-02T04:54:40;97884.00;;;13.92;43.36
29879;BME280;16752;53.364;-1.488;2024-03-02T04:57:43;97885.38;;;13.88;43.32
29879;BME280;16752;53.364;-1.488;2024-03-02T05:00:27;97876.94;;;13.93;43.09
29879;BME280;16752;53.364;-1.488;2024-03-02T05:03:11;97879.81;;;13.16;44.86
29879;BME280;16752;53.364;-1.488;2024-03-02T05:05:55;97882.25;;;13.40;44.33
29879;BME280;16752;53.364;-1.488;2024-03-02T05:08:40;97893.19;;;13.67;43.60
29879;BME280;16752;53.364;-1.488;2024-03-02T05:11:23;97879.28;;;13.88;43.34
29879;BME280;16752;53.364;-1.488;2024-03-02T05:14:23;97887.16;;;14.02;43.00
29879;BME280;16752;53.364;-1.488;2024-03-02T05:17:07;97874.00;;;14.02;42.86
29879;BME280;16752;53.364;-1.488;2024-03-02T05:19:51;97876.81;;;13.86;43.22
29879;BME280;16752;53.364;-1.488;2024-03-02T05:22:38;97871.00;;;14.05;42.75
29879;BME280;16752;53.364;-1.488;2024-03-02T05:25:23;97876.38;;;14.12;42.97
29879;BME280;16752;53.364;-1.488;2024-03-02T05:28:07;97887.53;;;13.99;42.95
29879;BME280;16752;53.364;-1.488;2024-03-02T05:30:51;97884.63;;;13.94;43.25
29879;BME280;16752;53.364;-1.488;2024-03-02T05:33:36;97889.09;;;13.94;43.28
29879;BME280;16752;53.364;-1.488;2024-03-02T05:36:20;97887.53;;;13.99;43.21
29879;BME280;16752;53.364;-1.488;2024-03-02T05:39:05;97889.47;;;13.91;43.02
29879;BME280;16752;53.364;-1.488;2024-03-02T05:41:50;97893.53;;;13.93;43.45
29879;BME280;16752;53.364;-1.488;2024-03-02T05:44:34;97892.16;;;14.12;42.70
29879;BME280;16752;53.364;-1.488;2024-03-02T05:47:18;97884.72;;;14.16;42.65
29879;BME280;16752;53.364;-1.488;2024-03-02T05:50:02;97883.16;;;14.06;42.59
29879;BME280;16752;53.364;-1.488;2024-03-02T05:52:47;97876.28;;;13.76;43.52
29879;BME280;16752;53.364;-1.488;2024-03-02T05:55:31;97886.19;;;13.74;43.49
29879;BME280;16752;53.364;-1.488;2024-03-02T05:58:15;97882.56;;;13.90;43.30
29879;BME280;16752;53.364;-1.488;2024-03-02T06:01:21;97879.00;;;13.83;43.36
29879;BME280;16752;53.364;-1.488;2024-03-02T06:04:12;97879.38;;;13.80;43.55
29879;BME280;16752;53.364;-1.488;2024-03-02T06:06:56;97887.34;;;13.86;43.45
29879;BME280;16752;53.364;-1.488;2024-03-02T06:09:40;97882.63;;;13.82;43.38
29879;BME280;16752;53.364;-1.488;2024-03-02T06:12:24;97890.91;;;13.93;43.70
29879;BME280;16752;53.364;-1.488;2024-03-02T06:15:08;97886.34;;;14.02;42.84
29879;BME280;16752;53.364;-1.488;2024-03-02T06:17:52;97893.69;;;14.06;42.91
29879;BME280;16752;53.364;-1.488;2024-03-02T06:20:36;97892.88;;;14.06;43.06
29879;BME280;16752;53.364;-1.488;2024-03-02T06:23:21;97898.72;;;13.72;43.72
29879;BME280;16752;53.364;-1.488;2024-03-02T06:26:04;97897.94;;;14.07;42.92
29879;BME280;16752;53.364;-1.488;2024-03-02T06:28:48;97895.91;;;13.88;43.25
29879;BME280;16752;53.364;-1.488;2024-03-02T06:31:32;97894.97;;;13.81;43.45
29879;BME280;16752;53.364;-1.488;2024-03-02T06:34:16;97904.44;;;13.90;43.28
29879;BME280;16752;53.364;-1.488;2024-03-02T06:37:00;97899.16;;;13.90;43.27
29879;BME280;16752;53.364;-1.488;2024-03-02T06:39:44;97908.41;;;14.16;42.96
29879;BME280;16752;53.364;-1.488;2024-03-02T06:42:28;97902.88;;;14.61;41.80
29879;BME280;16752;53.364;-1.488;2024-03-02T06:45:16;97907.63;;;14.51;41.76
29879;BME280;16752;53.364;-1.488;2024-03-02T06:48:00;97903.13;;;13.86;43.14
29879;BME280;16752;53.364;-1.488;2024-03-02T06:50:44;97900.50;;;13.86;43.42
29879;BME280;16752;53.364;-1.488;2024-03-02T06:53:28;97905.97;;;13.99;42.94
29879;BME280;16752;53.364;-1.488;2024-03-02T06:56:13;97910.50;;;13.91;43.41
29879;BME280;16752;53.364;-1.488;2024-03-02T06:58:57;97917.22;;;13.93;43.38
29879;BME280;16752;53.364;-1.488;2024-03-02T07:01:41;97911.22;;;13.99;43.20
29879;BME280;16752;53.364;-1.488;2024-03-02T07:04:27;97915.28;;;13.87;43.81
29879;BME280;16752;53.364;-1.488;2024-03-02T07:07:11;97913.97;;;13.91;43.53
29879;BME280;16752;53.364;-1.488;2024-03-02T07:09:55;97915.59;;;13.77;43.93
29879;BME280;16752;53.364;-1.488;2024-03-02T07:12:39;97921.84;;;13.91;43.71
29879;BME280;16752;53.364;-1.488;2024-03-02T07:15:23;97921.13;;;13.97;43.79
29879;BME280;16752;53.364;-1.488;2024-03-02T07:18:26;97916.38;;;14.07;43.19
29879;BME280;16752;53.364;-1.488;2024-03-02T07:21:10;97922.84;;;14.05;43.47
29879;BME280;16752;53.364;-1.488;2024-03-02T07:23:54;97926.91;;;14.07;43.51
29879;BME280;16752;53.364;-1.488;2024-03-02T07:26:38;97924.19;;;14.16;43.28
29879;BME280;16752;53.364;-1.488;2024-03-02T07:29:22;97925.84;;;14.17;43.15
29879;BME280;16752;53.364;-1.488;2024-03-02T07:32:06;97922.47;;;14.08;43.07
29879;BME280;16752;53.364;-1.488;2024-03-02T07:34:51;97922.56;;;14.15;43.26
29879;BME280;16752;53.364;-1.488;2024-03-02T07:37:34;97922.00;;;14.19;43.18
29879;BME280;16752;53.364;-1.488;2024-03-02T07:40:19;97914.50;;;14.01;43.47
29879;BME280;16752;53.364;-1.488;2024-03-02T07:43:03;97911.50;;;14.04;43.58
29879;BME280;16752;53.364;-1.488;2024-03-02T07:45:47;97913.31;;;14.19;43.06
29879;BME280;16752;53.364;-1.488;2024-03-02T07:48:31;97915.75;;;14.05;43.21
29879;BME280;16752;53.364;-1.488;2024-03-02T07:51:15;97913.31;;;14.04;43.80
29879;BME280;16752;53.364;-1.488;2024-03-02T07:53:59;97915.16;;;13.89;43.86
29879;BME280;16752;53.364;-1.488;2024-03-02T07:56:43;97909.97;;;14.10;43.27
29879;BME280;16752;53.364;-1.488;2024-03-02T07:59:28;97914.50;;;14.01;43.72
29879;BME280;16752;53.364;-1.488;2024-03-02T08:02:12;97917.00;;;14.24;43.12
29879;BME280;16752;53.364;-1.488;2024-03-02T08:04:56;97915.19;;;14.25;43.32
29879;BME280;16752;53.364;-1.488;2024-03-02T08:07:40;97912.31;;;14.20;43.21
29879;BME280;16752;53.364;-1.488;2024-03-02T08:10:24;97913.47;;;14.32;42.74
29879;BME280;16752;53.364;-1.488;2024-03-02T08:13:08;97917.44;;;14.28;43.11
29879;BME280;16752;53.364;-1.488;2024-03-02T08:15:52;97921.66;;;14.07;43.70
29879;BME280;16752;53.364;-1.488;2024-03-02T08:18:36;97922.19;;;14.18;43.33
29879;BME280;16752;53.364;-1.488;2024-03-02T08:21:20;97923.19;;;14.17;43.42
29879;BME280;16752;53.364;-1.488;2024-03-02T08:24:04;97920.00;;;14.21;43.68
29879;BME280;16752;53.364;-1.488;2024-03-02T08:26:47;97927.47;;;14.03;43.98
29879;BME280;16752;53.364;-1.488;2024-03-02T08:29:31;97927.09;;;14.21;43.50
29879;BME280;16752;53.364;-1.488;2024-03-02T08:32:15;97930.63;;;14.28;43.08
29879;BME280;16752;53.364;-1.488;2024-03-02T08:35:01;97928.16;;;14.41;42.99
29879;BME280;16752;53.364;-1.488;2024-03-02T08:37:45;97926.72;;;14.24;43.42
29879;BME280;16752;53.364;-1.488;2024-03-02T08:40:28;97930.53;;;14.36;43.36
29879;BME280;16752;53.364;-1.488;2024-03-02T08:43:12;97928.69;;;14.51;43.04
29879;BME280;16752;53.364;-1.488;2024-03-02T08:45:56;97933.38;;;13.90;44.21
29879;BME280;16752;53.364;-1.488;2024-03-02T08:48:40;97936.06;;;14.56;43.22
29879;BME280;16752;53.364;-1.488;2024-03-02T08:51:24;97932.56;;;14.70;43.02
29879;BME280;16752;53.364;-1.488;2024-03-02T08:54:08;97933.16;;;14.87;42.46
29879;BME280;16752;53.364;-1.488;2024-03-02T08:56:54;97932.66;;;14.77;43.21
29879;BME280;16752;53.364;-1.488;2024-03-02T08:59:38;97928.63;;;14.81;43.19
29879;BME280;16752;53.364;-1.488;2024-03-02T09:02:22;97929.75;;;14.93;42.73
29879;BME280;16752;53.364;-1.488;2024-03-02T09:05:07;97928.88;;;14.50;43.64
29879;BME280;16752;53.364;-1.488;2024-03-02T09:07:52;97933.81;;;14.74;43.10
29879;BME280;16752;53.364;-1.488;2024-03-02T09:10:36;97931.75;;;14.70;43.20
29879;BME280;16752;53.364;-1.488;2024-03-02T09:13:22;97923.91;;;14.55;43.31
29879;BME280;16752;53.364;-1.488;2024-03-02T09:16:06;97920.28;;;14.56;43.56
29879;BME280;16752;53.364;-1.488;2024-03-02T09:18:50;97910.38;;;14.79;43.21
29879;BME280;16752;53.364;-1.488;2024-03-02T09:21:34;97906.16;;;14.85;43.24
29879;BME280;16752;53.364;-1.488;2024-03-02T09:24:18;97913.94;;;14.72;43.76
29879;BME280;16752;53.364;-1.488;2024-03-02T09:27:02;97908.56;;;15.01;42.92
29879;BME280;16752;53.364;-1.488;2024-03-02T09:29:46;97905.84;;;15.16;42.61
29879;BME280;16752;53.364;-1.488;2024-03-02T09:32:30;97899.50;;;14.89;43.42
29879;BME280;16752;53.364;-1.488;2024-03-02T09:35:14;97905.41;;;15.12;43.30
29879;BME280;16752;53.364;-1.488;2024-03-02T09:37:58;97896.09;;;15.16;42.75
29879;BME280;16752;53.364;-1.488;2024-03-02T09:40:42;97895.44;;;15.08;42.50
29879;BME280;16752;53.364;-1.488;2024-03-02T09:43:27;97905.13;;;15.01;43.50
29879;BME280;16752;53.364;-1.488;2024-03-02T09:46:10;97890.94;;;15.29;42.56
29879;BME280;16752;53.364;-1.488;2024-03-02T09:48:55;97896.19;;;15.23;42.48
29879;BME280;16752;53.364;-1.488;2024-03-02T09:51:39;97886.06;;;15.26;42.48
29879;BME280;16752;53.364;-1.488;2024-03-02T09:54:24;97884.75;;;15.16;42.71
29879;BME280;16752;53.364;-1.488;2024-03-02T09:57:08;97880.03;;;14.47;44.03
29879;BME280;16752;53.364;-1.488;2024-03-02T09:59:53;97877.03;;;14.72;44.15
29879;BME280;16752;53.364;-1.488;2024-03-02T10:02:37;97881.63;;;15.06;43.27
29879;BME280;16752;53.364;-1.488;2024-03-02T10:05:24;97892.91;;;14.42;44.08
29879;BME280;16752;53.364;-1.488;2024-03-02T10:08:10;97887.56;;;14.72;44.41
29879;BME280;16752;53.364;-1.488;2024-03-02T10:10:53;97888.56;;;15.13;43.21
29879;BME280;16752;53.364;-1.488;2024-03-02T10:13:37;97885.50;;;15.10;43.42
29879;BME280;16752;53.364;-1.488;2024-03-02T10:16:21;97878.56;;;15.30;43.48
29879;BME280;16752;53.364;-1.488;2024-03-02T10:22:02;97878.66;;;15.15;43.83
29879;BME280;16752;53.364;-1.488;2024-03-02T10:24:46;97875.16;;;14.87;44.46
29879;BME280;16752;53.364;-1.488;2024-03-02T10:27:31;97878.38;;;15.32;43.47
29879;BME280;16752;53.364;-1.488;2024-03-02T10:30:18;97874.88;;;15.24;43.61
29879;BME280;16752;53.364;-1.488;2024-03-02T10:33:02;97872.78;;;15.41;43.26
29879;BME280;16752;53.364;-1.488;2024-03-02T10:35:47;97868.31;;;15.42;43.51
29879;BME280;16752;53.364;-1.488;2024-03-02T10:38:32;97876.75;;;15.31;43.99
29879;BME280;16752;53.364;-1.488;2024-03-02T10:41:19;97876.59;;;15.39;43.80
29879;BME280;16752;53.364;-1.488;2024-03-02T10:44:08;97880.75;;;14.98;44.75
29879;BME280;16752;53.364;-1.488;2024-03-02T10:46:52;97880.69;;;15.41;43.77
29879;BME280;16752;53.364;-1.488;2024-03-02T10:49:37;97875.69;;;15.53;44.09
29879;BME280;16752;53.364;-1.488;2024-03-02T10:52:22;97870.13;;;14.92;45.44
29879;BME280;16752;53.364;-1.488;2024-03-02T10:55:07;97863.03;;;15.42;44.01
29879;BME280;16752;53.364;-1.488;2024-03-02T10:57:53;97862.84;;;15.71;43.69
29879;BME280;16752;53.364;-1.488;2024-03-02T11:00:38;97869.75;;;15.72;43.72
29879;BME280;16752;53.364;-1.488;2024-03-02T11:03:22;97860.88;;;15.52;43.74
29879;BME280;16752;53.364;-1.488;2024-03-02T11:06:07;97862.88;;;15.50;44.32
29879;BME280;16752;53.364;-1.488;2024-03-02T11:08:51;97863.47;;;15.73;43.84
29879;BME280;16752;53.364;-1.488;2024-03-02T11:11:43;97864.66;;;16.05;43.25
29879;BME280;16752;53.364;-1.488;2024-03-02T11:14:27;97868.44;;;15.89;43.68
29879;BME280;16752;53.364;-1.488;2024-03-02T11:17:14;97865.78;;;15.89;44.25
29879;BME280;16752;53.364;-1.488;2024-03-02T11:20:03;97869.63;;;16.28;44.69
29879;BME280;16752;53.364;-1.488;2024-03-02T11:22:47;97858.53;;;16.59;44.00
29879;BME280;16752;53.364;-1.488;2024-03-02T11:25:31;97859.13;;;16.55;44.20
29879;BME280;16752;53.364;-1.488;2024-03-02T11:28:15;97859.00;;;16.89;43.07
29879;BME280;16752;53.364;-1.488;2024-03-02T11:30:59;97856.25;;;15.88;43.93
29879;BME280;16752;53.364;-1.488;2024-03-02T11:33:43;97861.94;;;16.46;43.31
29879;BME280;16752;53.364;-1.488;2024-03-02T11:36:27;97855.63;;;16.47;43.42
29879;BME280;16752;53.364;-1.488;2024-03-02T11:39:11;97857.34;;;16.68;43.47
29879;BME280;16752;53.364;-1.488;2024-03-02T11:41:55;97859.19;;;16.81;43.26
29879;BME280;16752;53.364;-1.488;2024-03-02T11:44:40;97849.44;;;16.75;43.16
29879;BME280;16752;53.364;-1.488;2024-03-02T11:47:24;97844.16;;;16.14;44.83
29879;BME280;16752;53.364;-1.488;2024-03-02T11:50:14;97847.19;;;16.85;43.44
29879;BME280;16752;53.364;-1.488;2024-03-02T11:52:58;97846.59;;;13.38;50.21
29879;BME280;16752;53.364;-1.488;2024-03-02T11:55:42;97851.63;;;16.04;44.96
29879;BME280;16752;53.364;-1.488;2024-03-02T11:58:30;97846.69;;;16.42;44.05
29879;BME280;16752;53.364;-1.488;2024-03-02T12:01:14;97843.97;;;16.22;44.42
29879;BME280;16752;53.364;-1.488;2024-03-02T12:03:58;97847.28;;;16.37;44.39
29879;BME280;16752;53.364;-1.488;2024-03-02T12:06:42;97836.53;;;16.45;43.85
29879;BME280;16752;53.364;-1.488;2024-03-02T12:09:28;97833.09;;;16.65;43.62
29879;BME280;16752;53.364;-1.488;2024-03-02T12:12:11;97831.78;;;16.21;44.54
29879;BME280;16752;53.364;-1.488;2024-03-02T12:15:01;97823.03;;;16.07;44.85
29879;BME280;16752;53.364;-1.488;2024-03-02T12:17:45;97822.53;;;16.65;43.72
29879;BME280;16752;53.364;-1.488;2024-03-02T12:20:30;97820.06;;;16.37;44.79
29879;BME280;16752;53.364;-1.488;2024-03-02T12:23:14;97818.94;;;16.99;43.62
29879;BME280;16752;53.364;-1.488;2024-03-02T12:25:58;97817.69;;;16.88;43.94
29879;BME280;16752;53.364;-1.488;2024-03-02T12:28:42;97812.00;;;16.91;43.48
29879;BME280;16752;53.364;-1.488;2024-03-02T12:31:26;97818.41;;;16.29;45.22
29879;BME280;16752;53.364;-1.488;2024-03-02T12:34:12;97809.97;;;16.73;44.33
29879;BME280;16752;53.364;-1.488;2024-03-02T12:36:55;97806.31;;;15.94;45.71
29879;BME280;16752;53.364;-1.488;2024-03-02T12:39:39;97813.44;;;15.58;46.25
29879;BME280;16752;53.364;-1.488;2024-03-02T12:42:23;97809.47;;;16.30;45.77
29879;BME280;16752;53.364;-1.488;2024-03-02T12:45:08;97810.97;;;15.57;46.18
29879;BME280;16752;53.364;-1.488;2024-03-02T12:47:52;97807.97;;;16.95;45.61
29879;BME280;16752;53.364;-1.488;2024-03-02T12:50:36;97804.06;;;16.85;44.48
29879;BME280;16752;53.364;-1.488;2024-03-02T12:53:21;97808.31;;;17.32;44.26
29879;BME280;16752;53.364;-1.488;2024-03-02T12:56:05;97807.91;;;17.35;42.86
29879;BME280;16752;53.364;-1.488;2024-03-02T12:58:54;97810.81;;;16.94;42.49
29879;BME280;16752;53.364;-1.488;2024-03-02T13:01:38;97816.91;;;17.21;42.46
29879;BME280;16752;53.364;-1.488;2024-03-02T13:04:25;97815.97;;;15.45;41.91
29879;BME280;16752;53.364;-1.488;2024-03-02T13:07:13;97804.44;;;15.87;43.39
29879;BME280;16752;53.364;-1.488;2024-03-02T13:09:57;97809.03;;;14.82;43.67
29879;BME280;16752;53.364;-1.488;2024-03-02T13:12:41;97807.41;;;14.81;45.45
29879;BME280;16752;53.364;-1.488;2024-03-02T13:15:28;97801.88;;;15.59;43.76
29879;BME280;16752;53.364;-1.488;2024-03-02T13:18:12;97809.44;;;16.24;43.26
29879;BME280;16752;53.364;-1.488;2024-03-02T13:20:56;97802.69;;;15.60;43.73
29879;BME280;16752;53.364;-1.488;2024-03-02T13:23:40;97803.44;;;15.19;44.20
29879;BME280;16752;53.364;-1.488;2024-03-02T13:26:24;97796.50;;;16.48;42.24
29879;BME280;16752;53.364;-1.488;2024-03-02T13:29:07;97801.22;;;15.92;43.99
29879;BME280;16752;53.364;-1.488;2024-03-02T13:31:51;97794.22;;;17.51;42.33
29879;BME280;16752;53.364;-1.488;2024-03-02T13:34:36;97789.22;;;17.17;42.16
29879;BME280;16752;53.364;-1.488;2024-03-02T13:37:20;97794.09;;;16.87;41.03
29879;BME280;16752;53.364;-1.488;2024-03-02T13:40:05;97792.00;;;16.36;41.80
29879;BME280;16752;53.364;-1.488;2024-03-02T13:42:49;97801.97;;;16.40;42.27
29879;BME280;16752;53.364;-1.488;2024-03-02T13:45:35;97801.53;;;15.76;41.81
29879;BME280;16752;53.364;-1.488;2024-03-02T13:48:20;97789.16;;;16.37;42.40
29879;BME280;16752;53.364;-1.488;2024-03-02T13:51:04;97782.94;;;15.56;41.11
29879;BME280;16752;53.364;-1.488;2024-03-02T13:53:48;97792.59;;;16.31;42.73
29879;BME280;16752;53.364;-1.488;2024-03-02T13:56:32;97801.78;;;16.48;42.13
29879;BME280;16752;53.364;-1.488;2024-03-02T13:59:16;97792.16;;;17.66;40.03
29879;BME280;16752;53.364;-1.488;2024-03-02T14:02:04;97792.84;;;17.42;40.57
29879;BME280;16752;53.364;-1.488;2024-03-02T14:04:48;97789.00;;;17.38;38.98
29879;BME280;16752;53.364;-1.488;2024-03-02T14:07:33;97790.13;;;16.10;41.88
29879;BME280;16752;53.364;-1.488;2024-03-02T14:10:17;97778.56;;;16.24;40.82
29879;BME280;16752;53.364;-1.488;2024-03-02T14:13:05;97784.09;;;15.12;41.14
29879;BME280;16752;53.364;-1.488;2024-03-02T14:15:49;97786.28;;;15.37;42.56
29879;BME280;16752;53.364;-1.488;2024-03-02T14:18:33;97772.03;;;16.07;40.44
29879;BME280;16752;53.364;-1.488;2024-03-02T14:21:17;97769.69;;;15.43;40.71
29879;BME280;16752;53.364;-1.488;2024-03-02T14:24:01;97787.06;;;16.13;40.56